sensor_id;sensor_type;location;lat;lon;timestamp;temperature;humidity
62912;DHT22;49111;51.028;4.218;2023-06-14T00:03:16;21.30;72.30
62912;DHT22;49111;51.028;4.218;2023-06-14T00:05:50;21.20;72.70
62912;DHT22;49111;51.028;4.218;2023-06-14T00:08:24;21.20;73.30
62912;DHT22;49111;51.028;4.218;2023-06-14T00:10:55;21.20;73.40
62912;DHT22;49111;51.028;4.218;2023-06-14T00:13:20;21.10;73.60
62912;DHT22;49111;51.028;4.218;2023-06-14T00:15:46;21.00;73.90
62912;DHT22;49111;51.028;4.218;2023-06-14T00:18:29;21.10;74.10
62912;DHT22;49111;51.028;4.218;2023-06-14T00:21:13;21.00;74.20
62912;DHT22;49111;51.028;4.218;2023-06-14T00:23:40;21.00;74.60
62912;DHT22;49111;51.028;4.218;2023-06-14T00:26:10;20.90;74.50
62912;DHT22;49111;51.028;4.218;2023-06-14T00:28:51;20.90;74.80
62912;DHT22;49111;51.028;4.218;2023-06-14T00:31:47;20.90;75.10
62912;DHT22;49111;51.028;4.218;2023-06-14T00:34:26;20.80;75.60
62912;DHT22;49111;51.028;4.218;2023-06-14T00:37:02;20.70;75.90
62912;DHT22;49111;51.028;4.218;2023-06-14T00:39:30;20.70;75.80
62912;DHT22;49111;51.028;4.218;2023-06-14T00:41:57;20.60;76.50
62912;DHT22;49111;51.028;4.218;2023-06-14T00:44:35;20.60;76.30
62912;DHT22;49111;51.028;4.218;2023-06-14T00:47:01;20.50;76.50
62912;DHT22;49111;51.028;4.218;2023-06-14T00:49:29;20.40;76.70
62912;DHT22;49111;51.028;4.218;2023-06-14T00:51:59;20.40;77.10
62912;DHT22;49111;51.028;4.218;2023-06-14T00:54:35;20.40;76.70
62912;DHT22;49111;51.028;4.218;2023-06-14T00:57:05;20.30;76.80
62912;DHT22;49111;51.028;4.218;2023-06-14T00:59:31;20.30;76.50
62912;DHT22;49111;51.028;4.218;2023-06-14T01:02:00;20.30;76.70
62912;DHT22;49111;51.028;4.218;2023-06-14T01:04:47;20.20;76.80
62912;DHT22;49111;51.028;4.218;2023-06-14T01:10:47;20.10;76.70
62912;DHT22;49111;51.028;4.218;2023-06-14T01:13:27;20.10;76.20
62912;DHT22;49111;51.028;4.218;2023-06-14T01:15:55;20.00;76.40
62912;DHT22;49111;51.028;4.218;2023-06-14T01:18:25;20.00;76.40
62912;DHT22;49111;51.028;4.218;2023-06-14T01:21:02;19.90;76.50
62912;DHT22;49111;51.028;4.218;2023-06-14T01:23:32;19.90;76.50
62912;DHT22;49111;51.028;4.218;2023-06-14T01:26:01;19.90;76.60
62912;DHT22;49111;51.028;4.218;2023-06-14T01:28:33;19.90;76.60
62912;DHT22;49111;51.028;4.218;2023-06-14T01:31:20;19.80;76.50
62912;DHT22;49111;51.028;4.218;2023-06-14T01:33:50;19.80;76.80
62912;DHT22;49111;51.028;4.218;2023-06-14T01:36:20;19.70;76.10
62912;DHT22;49111;51.028;4.218;2023-06-14T01:39:02;19.70;76.30
62912;DHT22;49111;51.028;4.218;2023-06-14T01:41:35;19.70;75.60
62912;DHT22;49111;51.028;4.218;2023-06-14T01:44:14;19.70;75.90
62912;DHT22;49111;51.028;4.218;2023-06-14T01:46:59;19.70;76.20
62912;DHT22;49111;51.028;4.218;2023-06-14T01:52:34;19.60;76.40
62912;DHT22;49111;51.028;4.218;2023-06-14T01:55:24;19.60;76.30
62912;DHT22;49111;51.028;4.218;2023-06-14T02:09:22;19.50;75.90
62912;DHT22;49111;51.028;4.218;2023-06-14T02:23:27;19.50;75.10
62912;DHT22;49111;51.028;4.218;2023-06-14T02:26:05;19.50;74.00
62912;DHT22;49111;51.028;4.218;2023-06-14T02:28:44;19.50;73.90
62912;DHT22;49111;51.028;4.218;2023-06-14T02:31:10;19.50;73.80
62912;DHT22;49111;51.028;4.218;2023-06-14T02:33:37;19.50;73.70
62912;DHT22;49111;51.028;4.218;2023-06-14T02:36:04;19.50;73.60
62912;DHT22;49111;51.028;4.218;2023-06-14T02:38:35;19.50;73.80
62912;DHT22;49111;51.028;4.218;2023-06-14T02:41:33;19.50;73.70
62912;DHT22;49111;51.028;4.218;2023-06-14T02:43:59;19.50;73.30
62912;DHT22;49111;51.028;4.218;2023-06-14T02:46:36;19.50;73.80
62912;DHT22;49111;51.028;4.218;2023-06-14T02:49:11;19.50;74.10
62912;DHT22;49111;51.028;4.218;2023-06-14T02:51:38;19.50;73.80
62912;DHT22;49111;51.028;4.218;2023-06-14T02:54:06;19.50;73.80
62912;DHT22;49111;51.028;4.218;2023-06-14T02:56:51;19.50;73.70
62912;DHT22;49111;51.028;4.218;2023-06-14T02:59:36;19.40;73.80
62912;DHT22;49111;51.028;4.218;2023-06-14T03:02:38;19.40;73.70
62912;DHT22;49111;51.028;4.218;2023-06-14T03:05:06;19.40;74.00
62912;DHT22;49111;51.028;4.218;2023-06-14T03:07:36;19.40;74.70
62912;DHT22;49111;51.028;4.218;2023-06-14T03:10:15;19.30;74.60
62912;DHT22;49111;51.028;4.218;2023-06-14T03:12:51;19.30;74.80
62912;DHT22;49111;51.028;4.218;2023-06-14T03:15:56;19.30;75.00
62912;DHT22;49111;51.028;4.218;2023-06-14T03:18:30;19.20;75.50
62912;DHT22;49111;51.028;4.218;2023-06-14T03:20:57;19.10;75.80
62912;DHT22;49111;51.028;4.218;2023-06-14T03:23:44;19.10;75.90
62912;DHT22;49111;51.028;4.218;2023-06-14T03:26:11;19.00;75.90
62912;DHT22;49111;51.028;4.218;2023-06-14T03:29:17;19.00;76.20
62912;DHT22;49111;51.028;4.218;2023-06-14T03:32:01;19.00;76.50
62912;DHT22;49111;51.028;4.218;2023-06-14T03:34:37;18.90;77.00
62912;DHT22;49111;51.028;4.218;2023-06-14T03:37:07;18.80;76.70
62912;DHT22;49111;51.028;4.218;2023-06-14T03:39:44;18.80;76.90
62912;DHT22;49111;51.028;4.218;2023-06-14T03:42:21;18.70;77.30
62912;DHT22;49111;51.028;4.218;2023-06-14T03:47:56;18.70;76.90
62912;DHT22;49111;51.028;4.218;2023-06-14T03:50:43;18.60;76.90
62912;DHT22;49111;51.028;4.218;2023-06-14T03:53:29;18.60;76.80
62912;DHT22;49111;51.028;4.218;2023-06-14T03:59:25;18.60;76.80
62912;DHT22;49111;51.028;4.218;2023-06-14T04:02:00;18.60;77.20
62912;DHT22;49111;51.028;4.218;2023-06-14T04:04:28;18.60;76.90
62912;DHT22;49111;51.028;4.218;2023-06-14T04:07:02;18.60;76.80
62912;DHT22;49111;51.028;4.218;2023-06-14T04:09:32;18.60;77.00
62912;DHT22;49111;51.028;4.218;2023-06-14T04:11:59;18.60;77.10
62912;DHT22;49111;51.028;4.218;2023-06-14T04:14:28;18.60;77.00
62912;DHT22;49111;51.028;4.218;2023-06-14T04:16:54;18.60;77.40
62912;DHT22;49111;51.028;4.218;2023-06-14T04:19:22;18.50;77.60
62912;DHT22;49111;51.028;4.218;2023-06-14T04:22:11;18.50;77.20
62912;DHT22;49111;51.028;4.218;2023-06-14T04:24:48;18.50;77.60
62912;DHT22;49111;51.028;4.218;2023-06-14T04:27:30;18.50;77.70
62912;DHT22;49111;51.028;4.218;2023-06-14T04:30:07;18.50;78.20
62912;DHT22;49111;51.028;4.218;2023-06-14T04:32:58;18.50;78.60
62912;DHT22;49111;51.028;4.218;2023-06-14T04:35:42;18.50;79.20
62912;DHT22;49111;51.028;4.218;2023-06-14T04:38:23;18.50;79.10
62912;DHT22;49111;51.028;4.218;2023-06-14T04:40:52;18.50;79.50
62912;DHT22;49111;51.028;4.218;2023-06-14T04:43:53;18.50;79.20
62912;DHT22;49111;51.028;4.218;2023-06-14T04:46:32;18.50;79.10
62912;DHT22;49111;51.028;4.218;2023-06-14T04:49:15;18.60;78.70
62912;DHT22;49111;51.028;4.218;2023-06-14T04:54:58;18.60;78.50
62912;DHT22;49111;51.028;4.218;2023-06-14T04:57:32;18.70;78.50
62912;DHT22;49111;51.028;4.218;2023-06-14T05:00:07;18.70;78.40
62912;DHT22;49111;51.028;4.218;2023-06-14T05:02:47;18.70;78.10
62912;DHT22;49111;51.028;4.218;2023-06-14T05:05:35;18.80;78.10
62912;DHT22;49111;51.028;4.218;2023-06-14T05:08:10;18.80;77.60
62912;DHT22;49111;51.028;4.218;2023-06-14T05:10:51;18.80;78.70
62912;DHT22;49111;51.028;4.218;2023-06-14T05:13:23;18.80;79.10
62912;DHT22;49111;51.028;4.218;2023-06-14T05:15:50;18.90;79.00
62912;DHT22;49111;51.028;4.218;2023-06-14T05:18:24;19.00;78.80
62912;DHT22;49111;51.028;4.218;2023-06-14T05:24:58;19.10;77.90
62912;DHT22;49111;51.028;4.218;2023-06-14T05:27:36;19.20;77.30
62912;DHT22;49111;51.028;4.218;2023-06-14T05:30:06;19.20;77.10
62912;DHT22;49111;51.028;4.218;2023-06-14T05:32:32;19.30;76.70
62912;DHT22;49111;51.028;4.218;2023-06-14T05:35:08;19.30;76.60
62912;DHT22;49111;51.028;4.218;2023-06-14T05:37:39;19.30;76.10
62912;DHT22;49111;51.028;4.218;2023-06-14T05:40:17;19.40;76.30
62912;DHT22;49111;51.028;4.218;2023-06-14T05:46:37;19.50;75.10
62912;DHT22;49111;51.028;4.218;2023-06-14T05:49:20;19.50;75.60
62912;DHT22;49111;51.028;4.218;2023-06-14T05:51:55;19.60;76.10
62912;DHT22;49111;51.028;4.218;2023-06-14T05:54:32;19.60;75.10
62912;DHT22;49111;51.028;4.218;2023-06-14T05:57:07;19.70;76.10
62912;DHT22;49111;51.028;4.218;2023-06-14T05:59:41;19.80;74.30
62912;DHT22;49111;51.028;4.218;2023-06-14T06:02:07;19.80;74.80
62912;DHT22;49111;51.028;4.218;2023-06-14T06:04:40;19.90;74.40
62912;DHT22;49111;51.028;4.218;2023-06-14T06:07:20;19.90;74.20
62912;DHT22;49111;51.028;4.218;2023-06-14T06:09:53;19.90;75.30
62912;DHT22;49111;51.028;4.218;2023-06-14T06:12:47;20.00;74.70
62912;DHT22;49111;51.028;4.218;2023-06-14T06:15:23;20.00;74.50
62912;DHT22;49111;51.028;4.218;2023-06-14T06:17:50;20.10;74.70
62912;DHT22;49111;51.028;4.218;2023-06-14T06:20:20;20.10;74.50
62912;DHT22;49111;51.028;4.218;2023-06-14T06:23:23;20.10;74.60
62912;DHT22;49111;51.028;4.218;2023-06-14T06:25:55;20.20;74.60
62912;DHT22;49111;51.028;4.218;2023-06-14T06:28:35;20.10;74.10
62912;DHT22;49111;51.028;4.218;2023-06-14T06:31:11;20.20;74.40
62912;DHT22;49111;51.028;4.218;2023-06-14T06:33:38;20.30;75.00
62912;DHT22;49111;51.028;4.218;2023-06-14T06:36:10;20.30;74.40
62912;DHT22;49111;51.028;4.218;2023-06-14T06:38:37;20.40;73.50
62912;DHT22;49111;51.028;4.218;2023-06-14T06:41:03;20.50;73.60
62912;DHT22;49111;51.028;4.218;2023-06-14T06:43:33;20.50;73.00
62912;DHT22;49111;51.028;4.218;2023-06-14T06:46:03;20.60;73.70
62912;DHT22;49111;51.028;4.218;2023-06-14T06:48:43;20.60;73.50
62912;DHT22;49111;51.028;4.218;2023-06-14T06:51:09;20.70;73.20
62912;DHT22;49111;51.028;4.218;2023-06-14T06:53:37;20.80;73.60
62912;DHT22;49111;51.028;4.218;2023-06-14T06:56:36;20.80;73.30
62912;DHT22;49111;51.028;4.218;2023-06-14T06:59:15;20.80;73.60
62912;DHT22;49111;51.028;4.218;2023-06-14T07:01:48;21.00;74.20
62912;DHT22;49111;51.028;4.218;2023-06-14T07:04:24;21.10;74.00
62912;DHT22;49111;51.028;4.218;2023-06-14T07:07:12;21.10;72.10
62912;DHT22;49111;51.028;4.218;2023-06-14T07:09:39;21.20;72.00
62912;DHT22;49111;51.028;4.218;2023-06-14T07:12:13;21.20;72.30
62912;DHT22;49111;51.028;4.218;2023-06-14T07:14:43;21.30;71.70
62912;DHT22;49111;51.028;4.218;2023-06-14T07:17:41;21.40;72.60
62912;DHT22;49111;51.028;4.218;2023-06-14T07:20:47;21.50;71.10
62912;DHT22;49111;51.028;4.218;2023-06-14T07:23:37;21.50;71.90
62912;DHT22;49111;51.028;4.218;2023-06-14T07:26:11;21.60;72.30
62912;DHT22;49111;51.028;4.218;2023-06-14T07:28:38;21.60;71.50
62912;DHT22;49111;51.028;4.218;2023-06-14T07:31:15;21.70;72.00
62912;DHT22;49111;51.028;4.218;2023-06-14T07:33:48;21.80;71.50
62912;DHT22;49111;51.028;4.218;2023-06-14T07:39:47;22.00;70.90
62912;DHT22;49111;51.028;4.218;2023-06-14T07:42:23;22.20;71.20
62912;DHT22;49111;51.028;4.218;2023-06-14T07:45:08;22.20;70.70
62912;DHT22;49111;51.028;4.218;2023-06-14T07:47:52;22.30;69.90
62912;DHT22;49111;51.028;4.218;2023-06-14T07:53:48;22.40;68.90
62912;DHT22;49111;51.028;4.218;2023-06-14T07:56:28;22.50;69.90
62912;DHT22;49111;51.028;4.218;2023-06-14T07:59:28;22.50;69.00
62912;DHT22;49111;51.028;4.218;2023-06-14T08:01:54;22.50;69.80
62912;DHT22;49111;51.028;4.218;2023-06-14T08:04:23;22.60;69.40
62912;DHT22;49111;51.028;4.218;2023-06-14T08:06:53;22.70;69.50
62912;DHT22;49111;51.028;4.218;2023-06-14T08:09:21;22.90;68.50
62912;DHT22;49111;51.028;4.218;2023-06-14T08:11:55;22.90;68.90
62912;DHT22;49111;51.028;4.218;2023-06-14T08:14:38;23.10;68.60
62912;DHT22;49111;51.028;4.218;2023-06-14T08:17:13;23.10;69.40
62912;DHT22;49111;51.028;4.218;2023-06-14T08:24:01;23.30;68.20
62912;DHT22;49111;51.028;4.218;2023-06-14T08:29:27;23.50;67.20
62912;DHT22;49111;51.028;4.218;2023-06-14T08:32:17;23.60;67.10
62912;DHT22;49111;51.028;4.218;2023-06-14T08:34:47;23.80;67.50
62912;DHT22;49111;51.028;4.218;2023-06-14T08:41:11;23.90;66.70
62912;DHT22;49111;51.028;4.218;2023-06-14T08:43:39;24.00;66.90
62912;DHT22;49111;51.028;4.218;2023-06-14T08:46:06;24.00;66.60
62912;DHT22;49111;51.028;4.218;2023-06-14T08:48:38;24.10;66.00
62912;DHT22;49111;51.028;4.218;2023-06-14T08:51:08;24.20;67.30
62912;DHT22;49111;51.028;4.218;2023-06-14T08:53:43;24.20;64.90
62912;DHT22;49111;51.028;4.218;2023-06-14T08:56:16;24.30;65.40
62912;DHT22;49111;51.028;4.218;2023-06-14T08:59:00;24.40;65.70
62912;DHT22;49111;51.028;4.218;2023-06-14T09:01:33;24.50;66.30
62912;DHT22;49111;51.028;4.218;2023-06-14T09:04:23;24.60;65.20
62912;DHT22;49111;51.028;4.218;2023-06-14T09:07:02;24.70;65.40
62912;DHT22;49111;51.028;4.218;2023-06-14T09:09:39;24.80;66.40
62912;DHT22;49111;51.028;4.218;2023-06-14T09:12:18;24.90;64.10
62912;DHT22;49111;51.028;4.218;2023-06-14T09:14:57;24.90;64.90
62912;DHT22;49111;51.028;4.218;2023-06-14T09:17:24;24.90;66.40
62912;DHT22;49111;51.028;4.218;2023-06-14T09:19:51;25.00;66.10
62912;DHT22;49111;51.028;4.218;2023-06-14T09:22:29;25.20;65.80
62912;DHT22;49111;51.028;4.218;2023-06-14T09:24:56;25.30;66.40
62912;DHT22;49111;51.028;4.218;2023-06-14T09:27:36;25.30;65.70
62912;DHT22;49111;51.028;4.218;2023-06-14T09:30:08;25.40;63.80
62912;DHT22;49111;51.028;4.218;2023-06-14T09:32:42;25.30;64.60
62912;DHT22;49111;51.028;4.218;2023-06-14T09:35:09;25.50;66.70
62912;DHT22;49111;51.028;4.218;2023-06-14T09:37:44;25.60;65.00
62912;DHT22;49111;51.028;4.218;2023-06-14T09:40:13;25.70;64.10
62912;DHT22;49111;51.028;4.218;2023-06-14T09:43:12;25.80;64.60
62912;DHT22;49111;51.028;4.218;2023-06-14T09:45:46;25.90;63.70
62912;DHT22;49111;51.028;4.218;2023-06-14T09:48:25;25.90;64.30
62912;DHT22;49111;51.028;4.218;2023-06-14T09:51:11;26.00;63.90
62912;DHT22;49111;51.028;4.218;2023-06-14T09:53:44;26.00;62.00
62912;DHT22;49111;51.028;4.218;2023-06-14T09:56:28;26.10;62.10
62912;DHT22;49111;51.028;4.218;2023-06-14T09:59:10;26.10;60.80
62912;DHT22;49111;51.028;4.218;2023-06-14T10:01:51;26.10;61.80
62912;DHT22;49111;51.028;4.218;2023-06-14T10:04:20;26.10;62.50
62912;DHT22;49111;51.028;4.218;2023-06-14T10:06:54;26.20;61.70
62912;DHT22;49111;51.028;4.218;2023-06-14T10:09:24;26.20;59.20
62912;DHT22;49111;51.028;4.218;2023-06-14T10:11:53;26.30;59.60
62912;DHT22;49111;51.028;4.218;2023-06-14T10:14:29;26.30;59.40
62912;DHT22;49111;51.028;4.218;2023-06-14T10:17:03;26.40;57.70
62912;DHT22;49111;51.028;4.218;2023-06-14T10:19:52;26.50;58.40
62912;DHT22;49111;51.028;4.218;2023-06-14T10:22:49;26.60;60.00
62912;DHT22;49111;51.028;4.218;2023-06-14T10:25:31;26.70;59.40
62912;DHT22;49111;51.028;4.218;2023-06-14T10:28:19;26.70;59.40
62912;DHT22;49111;51.028;4.218;2023-06-14T10:31:11;26.90;58.60
62912;DHT22;49111;51.028;4.218;2023-06-14T10:34:09;27.10;59.00
62912;DHT22;49111;51.028;4.218;2023-06-14T10:36:44;27.20;59.50
62912;DHT22;49111;51.028;4.218;2023-06-14T10:42:28;27.50;57.70
62912;DHT22;49111;51.028;4.218;2023-06-14T10:44:55;27.60;56.80
62912;DHT22;49111;51.028;4.218;2023-06-14T10:47:26;27.60;56.70
62912;DHT22;49111;51.028;4.218;2023-06-14T10:50:06;27.80;56.40
62912;DHT22;49111;51.028;4.218;2023-06-14T10:52:42;27.90;57.30
62912;DHT22;49111;51.028;4.218;2023-06-14T10:55:19;28.10;56.50
62912;DHT22;49111;51.028;4.218;2023-06-14T10:58:12;28.30;56.20
62912;DHT22;49111;51.028;4.218;2023-06-14T11:00:49;28.40;53.70
62912;DHT22;49111;51.028;4.218;2023-06-14T11:06:14;28.50;55.80
62912;DHT22;49111;51.028;4.218;2023-06-14T11:15:28;28.90;53.90
62912;DHT22;49111;51.028;4.218;2023-06-14T11:18:26;28.80;52.60
62912;DHT22;49111;51.028;4.218;2023-06-14T11:20:58;28.90;53.10
62912;DHT22;49111;51.028;4.218;2023-06-14T11:23:52;29.00;52.60
62912;DHT22;49111;51.028;4.218;2023-06-14T11:26:27;29.00;53.60
62912;DHT22;49111;51.028;4.218;2023-06-14T11:29:10;29.10;54.20
62912;DHT22;49111;51.028;4.218;2023-06-14T11:35:21;29.40;53.00
62912;DHT22;49111;51.028;4.218;2023-06-14T11:38:02;29.50;53.40
62912;DHT22;49111;51.028;4.218;2023-06-14T11:40:29;29.60;52.70
62912;DHT22;49111;51.028;4.218;2023-06-14T11:43:18;29.60;52.00
62912;DHT22;49111;51.028;4.218;2023-06-14T11:45:48;29.70;52.90
62912;DHT22;49111;51.028;4.218;2023-06-14T11:48:16;29.80;52.70
62912;DHT22;49111;51.028;4.218;2023-06-14T11:51:06;29.70;54.00
62912;DHT22;49111;51.028;4.218;2023-06-14T11:53:39;29.80;53.10
62912;DHT22;49111;51.028;4.218;2023-06-14T11:56:41;29.90;52.90
62912;DHT22;49111;51.028;4.218;2023-06-14T12:06:03;30.10;51.70
62912;DHT22;49111;51.028;4.218;2023-06-14T12:08:35;30.20;51.20
62912;DHT22;49111;51.028;4.218;2023-06-14T12:11:23;30.30;52.20
62912;DHT22;49111;51.028;4.218;2023-06-14T12:13:58;30.40;52.70
62912;DHT22;49111;51.028;4.218;2023-06-14T12:16:34;30.60;52.00
62912;DHT22;49111;51.028;4.218;2023-06-14T12:19:34;30.70;51.20
62912;DHT22;49111;51.028;4.218;2023-06-14T12:21:54;30.70;52.40
62912;DHT22;49111;51.028;4.218;2023-06-14T12:24:20;30.90;53.40
62912;DHT22;49111;51.028;4.218;2023-06-14T12:26:46;30.80;50.00
62912;DHT22;49111;51.028;4.218;2023-06-14T12:29:13;30.70;51.30
62912;DHT22;49111;51.028;4.218;2023-06-14T12:31:45;30.70;51.10
62912;DHT22;49111;51.028;4.218;2023-06-14T12:34:11;30.80;51.10
62912;DHT22;49111;51.028;4.218;2023-06-14T12:36:39;30.70;50.20
62912;DHT22;49111;51.028;4.218;2023-06-14T12:39:10;30.70;51.60
62912;DHT22;49111;51.028;4.218;2023-06-14T12:41:43;30.80;52.20
62912;DHT22;49111;51.028;4.218;2023-06-14T12:44:18;30.70;50.40
62912;DHT22;49111;51.028;4.218;2023-06-14T12:46:47;30.80;50.60
62912;DHT22;49111;51.028;4.218;2023-06-14T12:49:16;30.90;50.00
62912;DHT22;49111;51.028;4.218;2023-06-14T12:51:47;30.90;49.50
62912;DHT22;49111;51.028;4.218;2023-06-14T12:54:13;31.00;49.10
62912;DHT22;49111;51.028;4.218;2023-06-14T12:59:59;31.00;49.00
62912;DHT22;49111;51.028;4.218;2023-06-14T13:02:26;31.00;49.00
62912;DHT22;49111;51.028;4.218;2023-06-14T13:07:50;31.00;49.70
62912;DHT22;49111;51.028;4.218;2023-06-14T13:10:20;31.10;50.00
62912;DHT22;49111;51.028;4.218;2023-06-14T13:13:00;31.10;50.20
62912;DHT22;49111;51.028;4.218;2023-06-14T13:15:28;31.30;49.90
62912;DHT22;49111;51.028;4.218;2023-06-14T13:17:58;31.30;47.90
62912;DHT22;49111;51.028;4.218;2023-06-14T13:20:42;31.30;49.00
62912;DHT22;49111;51.028;4.218;2023-06-14T13:23:22;31.40;48.90
62912;DHT22;49111;51.028;4.218;2023-06-14T13:26:18;31.40;48.30
62912;DHT22;49111;51.028;4.218;2023-06-14T13:28:52;31.50;49.60
62912;DHT22;49111;51.028;4.218;2023-06-14T13:31:35;31.50;50.40
62912;DHT22;49111;51.028;4.218;2023-06-14T13:34:06;31.60;50.10
62912;DHT22;49111;51.028;4.218;2023-06-14T13:36:43;31.70;50.10
62912;DHT22;49111;51.028;4.218;2023-06-14T13:39:08;31.80;49.20
62912;DHT22;49111;51.028;4.218;2023-06-14T13:41:35;31.80;49.20
62912;DHT22;49111;51.028;4.218;2023-06-14T13:44:36;31.80;49.90
62912;DHT22;49111;51.028;4.218;2023-06-14T13:47:02;31.70;47.50
62912;DHT22;49111;51.028;4.218;2023-06-14T13:49:29;31.60;47.10
62912;DHT22;49111;51.028;4.218;2023-06-14T13:52:32;31.60;47.20
62912;DHT22;49111;51.028;4.218;2023-06-14T13:55:05;31.70;48.90
62912;DHT22;49111;51.028;4.218;2023-06-14T13:57:32;31.70;48.10
62912;DHT22;49111;51.028;4.218;2023-06-14T14:00:07;31.80;49.00
62912;DHT22;49111;51.028;4.218;2023-06-14T14:02:45;31.90;49.00
62912;DHT22;49111;51.028;4.218;2023-06-14T14:05:19;32.00;47.30
62912;DHT22;49111;51.028;4.218;2023-06-14T14:07:48;32.00;47.40
62912;DHT22;49111;51.028;4.218;2023-06-14T14:10:31;31.80;46.90
62912;DHT22;49111;51.028;4.218;2023-06-14T14:18:56;31.90;47.90
62912;DHT22;49111;51.028;4.218;2023-06-14T14:21:22;32.00;47.30
62912;DHT22;49111;51.028;4.218;2023-06-14T14:23:48;32.10;47.60
62912;DHT22;49111;51.028;4.218;2023-06-14T14:26:18;32.00;46.90
62912;DHT22;49111;51.028;4.218;2023-06-14T14:32:06;31.90;47.90
62912;DHT22;49111;51.028;4.218;2023-06-14T14:34:37;31.80;46.90
62912;DHT22;49111;51.028;4.218;2023-06-14T14:37:04;31.90;47.60
62912;DHT22;49111;51.028;4.218;2023-06-14T14:39:44;32.00;47.30
62912;DHT22;49111;51.028;4.218;2023-06-14T14:42:26;32.10;47.00
62912;DHT22;49111;51.028;4.218;2023-06-14T14:44:55;32.20;46.80
62912;DHT22;49111;51.028;4.218;2023-06-14T14:47:31;32.10;46.50
62912;DHT22;49111;51.028;4.218;2023-06-14T14:50:01;32.10;46.70
62912;DHT22;49111;51.028;4.218;2023-06-14T14:52:28;32.20;46.90
62912;DHT22;49111;51.028;4.218;2023-06-14T14:54:55;32.30;47.20
62912;DHT22;49111;51.028;4.218;2023-06-14T14:57:45;32.30;46.80
62912;DHT22;49111;51.028;4.218;2023-06-14T15:00:24;32.20;47.20
62912;DHT22;49111;51.028;4.218;2023-06-14T15:02:51;32.30;47.00
62912;DHT22;49111;51.028;4.218;2023-06-14T15:05:34;32.30;46.50
62912;DHT22;49111;51.028;4.218;2023-06-14T15:08:16;32.50;47.20
62912;DHT22;49111;51.028;4.218;2023-06-14T15:10:51;32.40;46.50
62912;DHT22;49111;51.028;4.218;2023-06-14T15:13:26;32.30;46.40
62912;DHT22;49111;51.028;4.218;2023-06-14T15:15:55;32.50;46.50
62912;DHT22;49111;51.028;4.218;2023-06-14T15:18:25;32.30;45.80
62912;DHT22;49111;51.028;4.218;2023-06-14T15:24:59;32.40;46.10
62912;DHT22;49111;51.028;4.218;2023-06-14T15:27:47;32.50;46.80
62912;DHT22;49111;51.028;4.218;2023-06-14T15:30:24;32.30;45.80
62912;DHT22;49111;51.028;4.218;2023-06-14T15:36:27;32.30;46.40
62912;DHT22;49111;51.028;4.218;2023-06-14T15:39:10;32.40;46.60
62912;DHT22;49111;51.028;4.218;2023-06-14T15:41:36;32.30;46.60
62912;DHT22;49111;51.028;4.218;2023-06-14T15:44:02;32.10;46.40
62912;DHT22;49111;51.028;4.218;2023-06-14T15:46:35;32.10;45.90
62912;DHT22;49111;51.028;4.218;2023-06-14T15:49:10;32.10;45.40
62912;DHT22;49111;51.028;4.218;2023-06-14T15:51:40;32.00;45.50
62912;DHT22;49111;51.028;4.218;2023-06-14T15:54:10;31.90;45.50
62912;DHT22;49111;51.028;4.218;2023-06-14T15:56:46;31.80;46.70
62912;DHT22;49111;51.028;4.218;2023-06-14T15:59:12;31.90;46.50
62912;DHT22;49111;51.028;4.218;2023-06-14T16:05:08;31.80;45.90
62912;DHT22;49111;51.028;4.218;2023-06-14T16:07:48;31.80;46.90
62912;DHT22;49111;51.028;4.218;2023-06-14T16:10:31;31.80;47.00
62912;DHT22;49111;51.028;4.218;2023-06-14T16:13:02;31.90;45.80
62912;DHT22;49111;51.028;4.218;2023-06-14T16:15:29;31.80;44.90
62912;DHT22;49111;51.028;4.218;2023-06-14T16:18:03;31.80;46.00
62912;DHT22;49111;51.028;4.218;2023-06-14T16:20:29;31.90;45.80
62912;DHT22;49111;51.028;4.218;2023-06-14T16:23:03;31.80;45.70
62912;DHT22;49111;51.028;4.218;2023-06-14T16:25:32;31.80;46.00
62912;DHT22;49111;51.028;4.218;2023-06-14T16:27:58;31.90;47.70
62912;DHT22;49111;51.028;4.218;2023-06-14T16:30:27;31.90;46.50
62912;DHT22;49111;51.028;4.218;2023-06-14T16:33:22;31.90;46.70
62912;DHT22;49111;51.028;4.218;2023-06-14T16:36:21;32.00;47.30
62912;DHT22;49111;51.028;4.218;2023-06-14T16:38:48;32.00;47.30
62912;DHT22;49111;51.028;4.218;2023-06-14T16:41:28;32.10;47.60
62912;DHT22;49111;51.028;4.218;2023-06-14T16:43:56;32.00;47.00
62912;DHT22;49111;51.028;4.218;2023-06-14T16:46:34;32.00;47.70
62912;DHT22;49111;51.028;4.218;2023-06-14T16:49:10;32.00;45.60
62912;DHT22;49111;51.028;4.218;2023-06-14T16:54:38;31.90;46.40
62912;DHT22;49111;51.028;4.218;2023-06-14T16:57:04;31.90;46.40
62912;DHT22;49111;51.028;4.218;2023-06-14T16:59:41;32.00;46.50
62912;DHT22;49111;51.028;4.218;2023-06-14T17:02:19;31.90;47.30
62912;DHT22;49111;51.028;4.218;2023-06-14T17:04:46;32.00;48.00
62912;DHT22;49111;51.028;4.218;2023-06-14T17:07:22;31.90;46.00
62912;DHT22;49111;51.028;4.218;2023-06-14T17:09:55;31.90;47.20
62912;DHT22;49111;51.028;4.218;2023-06-14T17:12:33;31.90;46.40
62912;DHT22;49111;51.028;4.218;2023-06-14T17:15:07;31.90;47.20
62912;DHT22;49111;51.028;4.218;2023-06-14T17:17:57;31.90;46.90
62912;DHT22;49111;51.028;4.218;2023-06-14T17:20:26;31.80;46.20
62912;DHT22;49111;51.028;4.218;2023-06-14T17:23:21;31.80;46.30
62912;DHT22;49111;51.028;4.218;2023-06-14T17:25:48;31.80;45.80
62912;DHT22;49111;51.028;4.218;2023-06-14T17:28:34;31.70;45.60
62912;DHT22;49111;51.028;4.218;2023-06-14T17:31:27;31.80;45.20
62912;DHT22;49111;51.028;4.218;2023-06-14T17:34:07;32.00;45.40
62912;DHT22;49111;51.028;4.218;2023-06-14T17:36:36;32.10;46.20
62912;DHT22;49111;51.028;4.218;2023-06-14T17:39:03;32.30;45.70
62912;DHT22;49111;51.028;4.218;2023-06-14T17:41:42;32.30;45.10
62912;DHT22;49111;51.028;4.218;2023-06-14T17:44:27;32.40;45.00
62912;DHT22;49111;51.028;4.218;2023-06-14T17:46:53;32.50;45.60
62912;DHT22;49111;51.028;4.218;2023-06-14T17:49:20;32.50;46.30
62912;DHT22;49111;51.028;4.218;2023-06-14T17:51:52;32.70;46.10
62912;DHT22;49111;51.028;4.218;2023-06-14T17:54:22;32.80;45.80
62912;DHT22;49111;51.028;4.218;2023-06-14T17:56:56;32.70;45.30
62912;DHT22;49111;51.028;4.218;2023-06-14T17:59:47;32.70;45.40
62912;DHT22;49111;51.028;4.218;2023-06-14T18:02:14;32.80;45.10
62912;DHT22;49111;51.028;4.218;2023-06-14T18:04:41;32.70;45.60
62912;DHT22;49111;51.028;4.218;2023-06-14T18:07:13;32.70;46.00
62912;DHT22;49111;51.028;4.218;2023-06-14T18:09:39;32.70;45.90
62912;DHT22;49111;51.028;4.218;2023-06-14T18:12:25;32.60;45.30
62912;DHT22;49111;51.028;4.218;2023-06-14T18:14:51;32.40;45.90
62912;DHT22;49111;51.028;4.218;2023-06-14T18:17:23;32.30;45.70
62912;DHT22;49111;51.028;4.218;2023-06-14T18:19:48;32.10;45.80
62912;DHT22;49111;51.028;4.218;2023-06-14T18:22:33;31.90;45.80